Logo AVAMET
Benvolgut visitant, si us plau, ingressa Recuperar contrasenya

Inforatge Sueca el Perelló

Dades diàries. Acumulats / Últims 30 dies disponibles

Data Temperatura (°C) Humitat rel. (%) Pressió rel. (hPa) Vent (km/h) Precipitació
Mínima Mitjana Màxima Amplitud
tèrmica
Mínima Mitjana Màxima Mínima Mitjana Màxima Predom. Mitjana Ràfega
màxima
Total
(mm)
Índex-n
Mínima Mitjana Màxima Mínima Mitjana Màxima n
0 a 1
P0 max
mm 5'
Dades mensuals acumulades fins l'últim dia disponible
08/2019 20,6 22,9 26,4 26,2 26,7 29,3 36,8 16,2 34 81 94 1.008 1.014 1.021   10,7 79,6 0,4
Dades anuals acumulades fins l'últim dia disponible
2019 2,4 13,4 26,4 17,5 11,8 21,4 36,8 34,4 20 75 95 993 1.018 1.036   11,5 82,0 66,2
Últims 30 dies disponibles
21-08-2019 20,9     24,9     26,9 6,0 60 75 91 1.019 1.020 1.021 E 13,6 43,5 0,4
20-08-2019 24,2     26,1     28,7 4,5 68 81 88 1.014 1.017 1.020 ENE 20,3 79,6 0,0
19-08-2019 26,2     27,0     28,6 2,4 76 85 90 1.012 1.014 1.016 ENE 11,5 35,4 0,0
18-08-2019 23,2     26,6     29,8 6,6 74 86 93 1.009 1.012 1.014 SSE 9,7 42,6 0,0
17-08-2019 22,2     25,6     28,3 6,1 79 87 92 1.012 1.015 1.017 SSE 9,5 37,0 0,0
16-08-2019 22,3     26,0     28,3 6,0 71 82 91 1.014 1.017 1.019 SE 12,7 38,9 0,0
15-08-2019 21,3     25,4     28,3 7,0 74 83 91 1.015 1.017 1.019 SSE 10,5 38,9 0,0
14-08-2019 20,6     25,5     29,7 9,1 63 80 91 1.015 1.018 1.020 S 9,7 33,9 0,0
13-08-2019 25,1     25,6     26,7 1,6 60 70 78 1.017 1.018 1.020 ENE 16,3 42,6 0,0
12-08-2019 23,1     26,2     28,1 5,0 55 76 92 1.012 1.015 1.018 ESE 11,3 37,0 0,0
11-08-2019 26,4     27,5     29,4 3,0 78 85 90 1.010 1.013 1.015 ENE 11,5 33,9 0,0
10-08-2019 25,0     27,9     31,7 6,7 49 75 89 1.012 1.015 1.017 SSE 10,1 37,0 0,0
09-08-2019 21,6     29,2     36,8 15,2 34 67 93 1.010 1.012 1.013 SSO 7,7 33,9 0,0
08-08-2019 23,1     27,6     34,7 11,6 37 78 93 1.009 1.012 1.013 S 11,4 33,9 0,0
07-08-2019 22,6     26,3     31,2 8,6 62 87 94 1.008 1.010 1.013 S 7,9 38,9 0,0
06-08-2019 24,7     26,8     28,7 4,0 78 87 92 1.009 1.012 1.014 ESE 9,1 32,2 0,0
05-08-2019 23,2     26,1     28,3 5,1 77 85 93 1.012 1.014 1.016 ESE 8,0 25,9 0,0
04-08-2019 21,2     25,4     27,9 6,7 69 83 92 1.012 1.014 1.015 SSE 10,1 31,5 0,0
03-08-2019 21,4     25,2     27,9 6,5 67 82 93 1.012 1.015 1.016 SSE 8,6 33,9 0,0
02-08-2019 20,9     24,8     27,7 6,8 70 82 92 1.014 1.015 1.016 SSE 6,5 25,9 0,0
01-08-2019 22,2     25,0     27,1 4,9 69 80 91 1.011 1.013 1.016 SE 8,3 29,6 0,0
31-07-2019 24,3     25,7     27,0 2,7 65 80 90 1.014 1.016 1.018 ENE 15,4 48,3 0,4
30-07-2019 22,7     26,0     27,7 5,0 70 80 92 1.010 1.013 1.016 ESE 12,9 43,5 0,0
29-07-2019 20,8     25,6     30,4 9,6 61 79 92 1.007 1.010 1.011 S 10,6 38,9 0,0
28-07-2019 19,9     25,1     27,2 7,3 45 66 85 1.008 1.009 1.011 SSE 13,4 45,0 0,0
27-07-2019 21,3     26,6     32,3 11,0 34 63 92 1.002 1.005 1.009 SO 15,4 53,7 0,0
26-07-2019 21,7     25,6     28,4 6,7 60 82 91 1.008 1.010 1.013 SSE 7,3 35,4 0,0
25-07-2019 21,7     26,6     29,5 7,8 60 73 91 1.011 1.014 1.015 SSE 11,3 35,4 0,0
24-07-2019 20,6     26,1     30,9 10,3 43 74 89 1.014 1.016 1.017 S 8,5 31,5 0,0
23-07-2019 20,4     25,8     29,8 9,4 53 77 91 1.015 1.018 1.020 S 7,3 29,6 0,0
Últims 13 mesos disponibles
07/2019 19,8 21,9 25,1 25,7 26,7 28,6 33,5 13,7 63 80 88 1.005 1.014 1.021 SSE 10,1 53,7 3,8
06/2019 12,9 18,1 22,4 21,6 20,1 24,8 30,4 17,5 54 78 87 1.009 1.015 1.022 SSE 10,9 64,8 0,8
05/2019 7,9 13,9 20,3 18,0 17,3 21,3 32,7 24,8 53 76 87 1.005 1.015 1.024 SSE 11,4 66,7 5,0
04/2019 6,8 10,7 14,6 14,8 15,4 18,9 29,3 22,5 52 73 94 1.000 1.014 1.025 SE 14,6 77,8 41,6
03/2019 4,2 8,1 13,5 13,3 13,2 18,1 27,7 23,5 52 71 87 1.012 1.023 1.030 S 10,3 61,1 12,8
02/2019 3,4 7,0 11,0 11,4 11,8 16,3 21,3 17,9 45 74 88 995 1.025 1.034 SSO 11,4 82,0 0,8
01/2019 2,4 6,9 11,9 10,7 12,3 15,8 20,2 17,8 54 68 84 1.002 1.019 1.031 OSO 12,4 72,4 1,0
12/2018 5,7 9,4 13,4 12,7 13,2 17,3 22,1 16,4 65 77 90 1.009 1.025 1.031 OSO 11,3 69,3 19,4
11/2018 7,6 12,1 17,7 14,7 14,4 18,0 21,9 14,3 63 78 93 1.001 1.015 1.024 OSO 12,6 83,7 165,4
10/2018 8,7 14,5 19,4 18,3 13,7 21,9 26,4 17,7 54 78 94 1.000 1.014 1.025 SO 10,2 72,4 302,2
09/2018 14,6 19,7 23,1 23,6 24,7 26,7 28,3 13,7 73 83 88 1.012 1.019 1.028 9,1 55,6 102,0
08/2018 18,0 22,4 26,1 26,0 26,2 29,0 34,7 16,7 73 81 87 1.012 1.016 1.021 10,4 68,5 3,2
07/2018 19,7 22,2 25,6 25,7 26,7 29,0 35,2 15,5 54 80 87 1.009 1.014 1.019 10,7 56,3 6,0
Tots els anys disponibles
2018 1,2 14,1 26,1 17,8 8,3 21,5 35,2 34,0 46 76 94 993 1.016 1.035 S 12,0 98,2 769,4
2017 2,2 14,8 25,8 18,7 11,1 22,3 35,3 33,1 48 77 93 998 1.019 1.036 S 6,5 88,9 175,2
Temperatura (°C)
Humitat relativa (%)
Velocitat del vent i ràfega màxima (km/h)
Direcció del vent (°)
Pressió (hPa)
Precipitació (mm)
Nota sobre les dades: s'avisa a l'usuari de la provisionalitat i no oficialitat d'aquestes dades
Logo AVAMET blanc
Web allotjada a Sollutia
Llicència de Creative CommonsLa web d'AVAMET i els seus continguts estan subjectes a una llicència de
Reconeixement - No Comercial - Compartir igual
Properes estacions: Altea - Club Nàutic d'Altea (Soci), Ares del Maestrat (Ajuntament Soci),      - - - - -      Últimes estacions: Catadau - Urb. Lloma Molina (Inforatge), Ontinyent - El Pilar (Soci) - - -